createdAt,value
2019-03-12T00:01:53.425Z,97362.88
2019-03-12T00:04:22.552Z,97366.90
2019-03-12T00:06:51.690Z,97377.41
2019-03-12T00:09:22.594Z,97380.30
2019-03-12T00:11:51.701Z,97370.84
2019-03-12T00:14:20.936Z,97409.44
2019-03-12T00:16:53.275Z,97381.94
2019-03-12T00:19:24.527Z,97368.92
2019-03-12T00:21:55.588Z,97370.02
2019-03-12T00:24:26.499Z,97385.75
2019-03-12T00:26:55.806Z,97389.88
2019-03-12T00:29:24.935Z,97398.37
2019-03-12T00:31:54.241Z,97397.62
2019-03-12T00:34:24.548Z,97407.37
2019-03-12T00:36:56.625Z,97420.22
2019-03-12T00:39:28.062Z,97420.95
2019-03-12T00:42:01.269Z,97418.85
2019-03-12T00:44:30.452Z,97418.34
2019-03-12T00:47:01.562Z,97427.79
2019-03-12T00:49:30.674Z,97429.35
2019-03-12T00:52:04.159Z,97437.06
2019-03-12T00:54:36.768Z,97442.06
2019-03-12T00:57:07.240Z,97439.45
2019-03-12T00:59:40.074Z,97435.72
2019-03-12T01:02:13.117Z,97442.06
2019-03-12T01:04:43.207Z,97437.29
2019-03-12T01:07:12.334Z,97435.75
2019-03-12T01:09:43.944Z,97433.03
2019-03-12T01:12:13.042Z,97430.30
2019-03-12T01:14:45.234Z,97430.05
2019-03-12T01:17:14.387Z,97427.38
2019-03-12T01:19:46.330Z,97433.77
2019-03-12T01:22:17.126Z,97430.52
2019-03-12T01:24:46.618Z,97434.59
2019-03-12T01:27:16.740Z,97441.46
2019-03-12T01:29:46.946Z,97433.00
2019-03-12T01:32:20.499Z,97448.45
2019-03-12T01:34:49.617Z,97445.79
2019-03-12T01:37:18.774Z,97448.41
2019-03-12T01:39:49.655Z,97447.11
2019-03-12T01:42:18.744Z,97453.49
2019-03-12T01:44:47.895Z,97463.34
2019-03-12T01:47:17.041Z,97457.13
2019-03-12T01:49:46.194Z,97460.64
2019-03-12T01:52:20.964Z,97144.13
2019-03-12T01:54:53.117Z,97458.44
2019-03-12T01:57:22.537Z,97466.30
2019-03-12T01:59:51.640Z,97474.10
2019-03-12T02:02:20.870Z,97474.62
2019-03-12T02:04:50.196Z,97468.22
2019-03-12T02:07:19.622Z,97466.62
2019-03-12T02:09:49.142Z,97466.73
2019-03-12T02:12:21.443Z,97462.53
2019-03-12T02:14:51.886Z,97460.09
2019-03-12T02:17:21.002Z,97393.73
2019-03-12T02:19:51.353Z,97461.48
2019-03-12T02:22:25.709Z,97455.95
2019-03-12T02:24:55.010Z,97487.95
2019-03-12T02:27:24.335Z,97457.88
2019-03-12T02:29:55.922Z,97456.92
2019-03-12T02:32:25.044Z,97458.92
2019-03-12T02:34:54.108Z,97460.03
2019-03-12T02:37:23.358Z,97463.30
2019-03-12T02:39:52.621Z,97463.53
2019-03-12T02:42:23.626Z,97456.70
2019-03-12T02:44:52.724Z,97455.16
2019-03-12T02:47:21.811Z,97460.50
2019-03-12T02:49:51.126Z,97458.41
2019-03-12T02:52:20.350Z,97451.19
2019-03-12T02:54:49.684Z,97457.30
2019-03-12T02:57:18.774Z,97456.47
2019-03-12T02:59:49.582Z,97459.70
2019-03-12T03:02:18.745Z,97459.72
2019-03-12T03:04:49.000Z,97455.89
2019-03-12T03:07:38.765Z,97458.20
2019-03-12T03:10:14.138Z,97451.70
2019-03-12T03:12:43.214Z,97448.72
2019-03-12T03:15:20.265Z,97458.00
2019-03-12T03:17:49.377Z,97452.89
2019-03-12T03:20:19.874Z,97446.04
2019-03-12T03:22:52.059Z,97450.33
2019-03-12T03:25:27.887Z,97445.17
2019-03-12T03:27:55.403Z,97442.27
2019-03-12T03:30:24.582Z,97443.89
2019-03-12T03:32:53.761Z,97437.42
2019-03-12T03:35:26.633Z,97433.27
2019-03-12T03:37:59.332Z,97433.86
2019-03-12T03:40:31.581Z,97433.75
2019-03-12T03:43:00.717Z,97432.34
2019-03-12T03:45:29.823Z,97431.19
2019-03-12T03:48:00.285Z,97439.94
2019-03-12T03:50:29.663Z,97432.58
2019-03-12T03:52:58.941Z,97440.72
2019-03-12T03:55:30.561Z,97440.98
2019-03-12T03:58:05.561Z,97435.89
2019-03-12T04:00:37.178Z,97103.63
2019-03-12T04:03:06.272Z,97443.41
2019-03-12T04:05:35.446Z,97439.04
2019-03-12T04:08:10.596Z,97435.38
2019-03-12T04:10:35.333Z,97435.76
2019-03-12T04:13:04.491Z,95978.16
2019-03-12T04:15:35.404Z,97420.12
2019-03-12T04:18:05.014Z,97424.17
2019-03-12T04:20:35.716Z,97422.96
2019-03-12T04:23:05.948Z,97424.02
2019-03-12T04:25:38.749Z,97424.37
2019-03-12T04:28:07.903Z,97420.75
2019-03-12T04:30:37.311Z,97422.06
2019-03-12T04:33:07.989Z,97416.41
2019-03-12T04:35:38.449Z,97418.57
2019-03-12T04:38:07.559Z,97420.78
2019-03-12T04:40:37.111Z,97413.56
2019-03-12T04:43:06.699Z,97412.16
2019-03-12T04:45:38.303Z,97416.44
2019-03-12T04:48:09.314Z,97410.56
2019-03-12T04:50:38.455Z,97407.16
2019-03-12T04:53:07.639Z,97411.30
2019-03-12T04:55:36.798Z,97402.16
2019-03-12T04:58:07.077Z,97409.31
2019-03-12T05:00:36.804Z,97403.84
2019-03-12T05:03:05.990Z,97399.22
2019-03-12T05:05:39.671Z,97404.33
2019-03-12T05:08:08.833Z,97408.97
2019-03-12T05:10:43.068Z,97402.00
2019-03-12T05:13:12.268Z,97391.73
2019-03-12T05:15:44.137Z,97399.91
2019-03-12T05:18:13.362Z,97395.39
2019-03-12T05:20:42.539Z,97394.56
2019-03-12T05:23:14.260Z,97389.27
2019-03-12T05:25:43.433Z,97390.16
2019-03-12T05:28:12.551Z,97385.75
2019-03-12T05:30:43.156Z,97382.48
2019-03-12T05:33:16.908Z,97377.66
2019-03-12T05:35:48.617Z,97374.94
2019-03-12T05:38:19.012Z,97372.52
2019-03-12T05:40:51.023Z,97370.08
2019-03-12T05:43:20.831Z,97363.87
2019-03-12T05:45:52.673Z,97365.33
2019-03-12T05:48:22.979Z,97365.47
2019-03-12T05:50:53.820Z,97577.30
2019-03-12T05:53:27.042Z,97357.46
2019-03-12T05:55:56.496Z,95774.33
2019-03-12T05:58:26.101Z,97358.31
2019-03-12T06:00:55.327Z,97358.11
2019-03-12T06:03:25.683Z,97358.94
2019-03-12T06:05:56.685Z,97356.86
2019-03-12T06:08:26.034Z,97353.40
2019-03-12T06:10:59.466Z,97356.27
2019-03-12T06:13:30.506Z,97353.17
2019-03-12T06:16:00.796Z,97348.64
2019-03-12T06:18:31.515Z,97346.86
2019-03-12T06:21:00.701Z,97356.78
2019-03-12T06:23:29.851Z,97344.31
2019-03-12T06:26:02.850Z,97345.34
2019-03-12T06:28:34.770Z,97347.55
2019-03-12T06:31:39.403Z,97345.96
2019-03-12T06:34:14.874Z,97348.03
2019-03-12T06:36:48.781Z,97342.95
2019-03-12T06:39:31.890Z,96303.73
2019-03-12T06:42:10.898Z,97336.93
2019-03-12T06:44:57.549Z,97340.17
2019-03-12T06:48:03.296Z,97292.77
2019-03-12T06:50:40.854Z,97333.93
2019-03-12T06:53:24.994Z,97330.64
2019-03-12T06:56:10.353Z,97329.73
2019-03-12T06:58:55.985Z,97328.39
2019-03-12T07:01:50.129Z,97321.67
2019-03-12T07:04:47.221Z,97325.91
2019-03-12T07:07:45.951Z,97323.86
2019-03-12T07:10:30.967Z,97319.97
2019-03-12T07:13:25.099Z,97319.11
2019-03-12T07:16:14.307Z,97313.62
2019-03-12T07:19:03.025Z,97316.82
2019-03-12T07:21:41.169Z,97316.25
2019-03-12T07:24:32.709Z,97316.55
2019-03-12T07:27:12.259Z,97313.21
2019-03-12T07:29:56.897Z,97311.22
2019-03-12T07:32:56.598Z,97299.38
2019-03-12T07:35:41.989Z,97299.78
2019-03-12T07:38:32.611Z,97296.69
2019-03-12T07:41:22.893Z,97295.92
2019-03-12T07:44:01.357Z,97285.20
2019-03-12T07:46:55.338Z,97276.67
2019-03-12T07:49:49.889Z,97270.11
2019-03-12T07:55:21.428Z,97263.42
2019-03-12T07:57:59.744Z,97259.03
2019-03-12T08:00:37.075Z,97288.77
2019-03-12T08:03:34.346Z,97242.53
2019-03-12T08:06:22.642Z,97235.20
2019-03-12T08:09:13.845Z,97236.71
2019-03-12T08:11:58.708Z,97235.30
2019-03-12T08:14:44.908Z,97232.98
2019-03-12T08:17:42.816Z,97227.64
2019-03-12T08:20:30.684Z,97220.68
2019-03-12T08:23:16.076Z,97211.86
2019-03-12T08:26:03.343Z,97204.80
2019-03-12T08:28:52.905Z,97215.16
2019-03-12T08:31:50.231Z,97207.81
2019-03-12T08:34:32.031Z,97195.39
2019-03-12T08:37:16.449Z,97195.84
2019-03-12T08:40:04.405Z,97193.75
2019-03-12T08:42:54.441Z,97183.03
2019-03-12T08:45:36.409Z,97183.41
2019-03-12T08:48:24.648Z,97178.27
2019-03-12T08:51:04.982Z,96775.55
2019-03-12T08:53:53.042Z,97164.40
2019-03-12T08:56:47.847Z,97162.44
2019-03-12T08:59:36.025Z,97144.80
2019-03-12T09:02:24.958Z,96749.34
2019-03-12T09:05:18.030Z,97154.17
2019-03-12T09:08:17.456Z,97150.37
2019-03-12T09:11:09.459Z,97138.60
2019-03-12T09:14:14.404Z,97142.89
2019-03-12T09:17:09.419Z,97127.05
2019-03-12T09:19:57.559Z,97134.92
2019-03-12T09:22:50.672Z,97127.81
2019-03-12T09:26:03.049Z,97132.38
2019-03-12T09:28:49.467Z,97124.45
2019-03-12T09:31:48.422Z,97129.67
2019-03-12T09:34:36.282Z,97121.41
2019-03-12T09:37:30.614Z,97111.45
2019-03-12T09:40:18.775Z,97101.41
2019-03-12T09:43:19.694Z,97103.48
2019-03-12T09:46:07.830Z,97100.70
2019-03-12T09:48:56.891Z,97093.59
2019-03-12T09:51:34.021Z,96804.34
2019-03-12T09:57:18.935Z,97064.43
2019-03-12T10:00:15.585Z,97065.13
2019-03-12T10:02:56.465Z,97064.84
2019-03-12T10:05:36.283Z,97044.02
2019-03-12T10:08:33.173Z,97049.48
2019-03-12T10:11:24.261Z,97042.19
2019-03-12T10:14:26.041Z,97035.02
2019-03-12T10:17:14.375Z,97032.47
2019-03-12T10:20:10.983Z,97019.38
2019-03-12T10:23:02.481Z,97025.42
2019-03-12T10:25:50.932Z,97021.48
2019-03-12T10:28:32.748Z,97006.40
2019-03-12T10:31:23.961Z,97009.08
2019-03-12T10:34:02.468Z,97002.37
2019-03-12T10:36:53.630Z,96993.61
2019-03-12T10:40:18.300Z,96997.40
2019-03-12T10:43:24.564Z,96990.67
2019-03-12T10:46:04.156Z,96983.98
2019-03-12T10:48:41.672Z,96985.38
2019-03-12T10:51:13.034Z,96979.22
2019-03-12T10:53:41.676Z,96964.21
2019-03-12T10:56:13.388Z,96960.75
2019-03-12T10:58:42.700Z,96952.94
2019-03-12T11:01:17.795Z,96975.67
2019-03-12T11:03:46.884Z,96646.98
2019-03-12T11:06:18.773Z,96938.59
2019-03-12T11:08:52.940Z,96934.85
2019-03-12T11:11:22.106Z,96929.55
2019-03-12T11:13:51.306Z,96922.01
2019-03-12T11:16:20.487Z,96918.55
2019-03-12T11:18:54.397Z,96914.43
2019-03-12T11:21:24.742Z,96915.70
2019-03-12T11:23:56.381Z,96906.77
2019-03-12T11:26:25.892Z,96904.29
2019-03-12T11:28:57.481Z,96900.23
2019-03-12T11:31:26.681Z,96891.03
2019-03-12T11:33:55.955Z,96892.90
2019-03-12T11:36:28.859Z,96886.55
2019-03-12T11:38:58.027Z,96887.51
2019-03-12T11:41:27.215Z,96880.31
2019-03-12T11:43:57.420Z,96872.23
2019-03-12T11:46:40.832Z,96868.66
2019-03-12T11:49:05.829Z,96913.38
2019-03-12T11:51:36.657Z,96860.00
2019-03-12T11:54:06.070Z,96858.98
2019-03-12T11:56:35.256Z,96843.20
2019-03-12T11:59:06.640Z,96841.91
2019-03-12T12:01:37.291Z,96827.09
2019-03-12T12:04:06.552Z,96814.31
2019-03-12T12:06:35.736Z,96811.34
2019-03-12T12:09:06.639Z,96800.86
2019-03-12T12:11:38.645Z,96793.02
2019-03-12T12:14:08.145Z,96794.60
2019-03-12T12:16:39.629Z,96787.32
2019-03-12T12:19:10.886Z,96781.60
2019-03-12T12:21:40.166Z,96775.12
2019-03-12T12:24:09.364Z,96760.98
2019-03-12T12:26:40.999Z,96757.60
2019-03-12T12:29:10.186Z,96755.70
2019-03-12T12:31:39.374Z,96749.76
2019-03-12T12:34:09.878Z,96733.22
2019-03-12T12:36:42.048Z,96721.55
2019-03-12T12:39:14.297Z,96714.46
2019-03-12T12:41:49.525Z,96406.58
2019-03-12T12:44:19.782Z,96707.17
2019-03-12T12:46:48.945Z,96704.73
2019-03-12T12:49:19.846Z,96685.84
2019-03-12T12:51:50.632Z,96679.72
2019-03-12T12:54:19.836Z,96679.23
2019-03-12T12:56:49.075Z,96671.87
2019-03-12T12:59:23.767Z,96657.28
2019-03-12T13:01:53.053Z,96654.29
2019-03-12T13:04:22.325Z,96650.98
2019-03-12T13:06:51.686Z,96647.13
2019-03-12T13:09:21.063Z,96649.20
2019-03-12T13:11:50.286Z,96638.25
2019-03-12T13:14:19.860Z,96628.84
2019-03-12T13:16:49.463Z,96621.68
2019-03-12T13:19:18.690Z,96614.60
2019-03-12T13:22:09.356Z,96608.70
2019-03-12T13:24:40.506Z,96606.14
2019-03-12T13:27:09.775Z,96595.62
2019-03-12T13:29:42.081Z,96585.36
2019-03-12T13:32:14.071Z,96583.59
2019-03-12T13:34:45.395Z,96571.04
2019-03-12T13:37:20.187Z,96574.75
2019-03-12T13:40:09.775Z,96564.98
2019-03-12T13:42:41.279Z,96560.38
2019-03-12T13:45:14.175Z,96541.44
2019-03-12T13:47:43.402Z,96537.86
2019-03-12T13:50:14.927Z,96531.91
2019-03-12T13:52:47.345Z,96518.25
2019-03-12T13:55:18.928Z,96519.41
2019-03-12T13:57:52.201Z,96516.13
2019-03-12T14:00:23.466Z,96508.51
2019-03-12T14:02:53.862Z,96505.90
2019-03-12T14:05:24.839Z,96505.99
2019-03-12T14:07:59.069Z,96495.30
2019-03-12T14:10:30.584Z,96490.47
2019-03-12T14:13:00.145Z,96483.98
2019-03-12T14:15:31.780Z,96470.39
2019-03-12T14:18:08.121Z,96473.08
2019-03-12T14:20:50.753Z,96458.41
2019-03-12T14:23:35.187Z,96450.88
2019-03-12T14:26:06.045Z,96444.77
2019-03-12T14:28:35.362Z,96436.42
2019-03-12T14:31:04.841Z,96437.16
2019-03-12T14:33:37.060Z,96418.95
2019-03-12T14:36:08.051Z,96411.41
2019-03-12T14:38:42.673Z,96409.36
2019-03-12T14:41:12.313Z,96396.75
2019-03-12T14:43:41.974Z,96386.19
2019-03-12T14:46:16.089Z,96384.28
2019-03-12T14:48:57.148Z,96367.63
2019-03-12T14:51:42.968Z,96365.47
2019-03-12T14:54:13.350Z,96356.45
2019-03-12T14:56:44.050Z,96370.48
2019-03-12T14:59:23.726Z,96290.84
2019-03-12T15:01:55.660Z,96338.49
2019-03-12T15:04:27.658Z,96330.23
2019-03-12T15:07:06.336Z,96324.41
2019-03-12T15:09:35.822Z,96313.89
2019-03-12T15:12:05.026Z,96305.44
2019-03-12T15:14:34.268Z,96291.84
2019-03-12T15:17:03.638Z,96294.18
2019-03-12T15:19:35.509Z,96291.89
2019-03-12T15:22:04.780Z,96290.52
2019-03-12T15:24:37.251Z,96288.20
2019-03-12T15:27:09.545Z,96278.33
2019-03-12T15:29:42.122Z,96275.97
2019-03-12T15:32:13.719Z,96268.58
2019-03-12T15:34:44.663Z,96269.27
2019-03-12T15:37:15.461Z,96263.73
2019-03-12T15:39:47.320Z,96262.41
2019-03-12T15:42:21.600Z,96253.96
2019-03-12T15:44:54.018Z,96242.23
2019-03-12T15:47:26.033Z,96228.06
2019-03-12T15:49:55.178Z,96219.36
2019-03-12T15:52:24.661Z,96211.20
2019-03-12T15:54:53.965Z,96213.75
2019-03-12T15:57:29.371Z,96204.79
2019-03-12T15:59:58.813Z,96205.79
2019-03-12T16:02:30.596Z,96202.38
2019-03-12T16:05:00.037Z,96192.09
2019-03-12T16:07:31.605Z,96179.11
2019-03-12T16:10:01.895Z,96177.55
2019-03-12T16:12:32.022Z,96172.47
2019-03-12T16:15:02.248Z,96171.75
2019-03-12T16:17:34.097Z,96176.81
2019-03-12T16:20:10.876Z,96162.53
2019-03-12T16:22:41.292Z,96160.37
2019-03-12T16:25:11.850Z,96152.87
2019-03-12T16:27:50.985Z,96148.72
2019-03-12T16:30:20.552Z,94873.84
2019-03-12T16:32:57.409Z,95208.55
2019-03-12T16:35:26.752Z,96122.58
2019-03-12T16:38:02.656Z,96119.41
2019-03-12T16:40:32.801Z,96105.30
2019-03-12T16:43:03.479Z,96101.61
2019-03-12T16:45:34.127Z,96096.02
2019-03-12T16:48:03.509Z,96091.67
2019-03-12T16:50:32.642Z,96086.41
2019-03-12T16:53:01.836Z,96074.16
2019-03-12T16:55:33.746Z,96071.64
2019-03-12T16:58:03.204Z,96069.48
2019-03-12T17:00:35.683Z,96062.64
2019-03-12T17:03:05.219Z,96060.39
2019-03-12T17:05:34.538Z,96041.70
2019-03-12T17:08:04.236Z,96038.74
2019-03-12T17:10:33.396Z,96026.36
2019-03-12T17:13:06.039Z,96014.96
2019-03-12T17:15:36.723Z,96007.11
2019-03-12T17:18:05.905Z,95995.70
2019-03-12T17:20:35.291Z,95987.52
2019-03-12T17:23:04.486Z,95991.44
2019-03-12T17:25:36.664Z,96010.45
2019-03-12T17:28:05.808Z,95985.45
2019-03-12T17:30:37.639Z,95981.16
2019-03-12T17:33:07.057Z,95672.92
2019-03-12T17:35:36.306Z,95978.95
2019-03-12T17:38:10.194Z,95969.17
2019-03-12T17:40:39.377Z,95967.05
2019-03-12T17:43:13.691Z,95962.27
2019-03-12T17:45:43.035Z,95956.42
2019-03-12T17:48:12.150Z,95946.16
2019-03-12T17:50:41.360Z,95947.97
2019-03-12T17:53:12.042Z,95937.69
2019-03-12T17:55:44.352Z,95935.67
2019-03-12T17:58:13.804Z,95925.78
2019-03-12T18:00:47.801Z,95919.20
2019-03-12T18:03:16.966Z,95921.66
2019-03-12T18:05:47.906Z,95914.55
2019-03-12T18:08:17.046Z,95906.73
2019-03-12T18:10:49.010Z,95895.81
2019-03-12T18:13:18.317Z,95899.97
2019-03-12T18:15:49.806Z,95893.67
2019-03-12T18:18:19.041Z,95895.05
2019-03-12T18:20:48.221Z,95882.54
2019-03-12T18:23:20.858Z,95873.34
2019-03-12T18:25:50.452Z,95876.06
2019-03-12T18:28:20.892Z,95871.33
2019-03-12T18:31:01.310Z,95885.47
2019-03-12T18:33:30.457Z,95877.80
2019-03-12T18:36:06.434Z,95874.90
2019-03-12T18:38:38.319Z,95873.51
2019-03-12T18:41:09.276Z,95873.23
2019-03-12T18:43:38.511Z,95874.36
2019-03-12T18:46:08.043Z,95862.36
2019-03-12T18:48:39.689Z,95861.39
2019-03-12T18:51:08.802Z,95853.44
2019-03-12T18:53:39.241Z,95851.31
2019-03-12T18:56:09.518Z,95850.49
2019-03-12T18:58:48.484Z,95841.88
2019-03-12T19:01:16.661Z,95844.80
2019-03-12T19:03:54.953Z,95843.12
2019-03-12T19:06:24.128Z,95828.67
2019-03-12T19:08:53.421Z,95824.48
2019-03-12T19:11:22.969Z,95816.20
2019-03-12T19:13:52.837Z,95809.42
2019-03-12T19:16:22.095Z,95804.64
2019-03-12T19:18:51.596Z,95795.55
2019-03-12T19:21:20.743Z,95794.98
2019-03-12T19:23:52.276Z,95805.75
2019-03-12T19:26:21.584Z,95784.56
2019-03-12T19:28:51.399Z,95782.74
2019-03-12T19:31:51.724Z,95772.50
2019-03-12T19:34:35.048Z,95769.05
2019-03-12T19:37:05.704Z,95758.96
2019-03-12T19:39:35.677Z,95763.22
2019-03-12T19:42:05.439Z,94333.52
2019-03-12T19:44:36.045Z,95759.49
2019-03-12T19:47:05.289Z,95755.06
2019-03-12T19:49:34.426Z,95755.39
2019-03-12T19:52:05.974Z,95755.36
2019-03-12T19:54:41.257Z,95744.56
2019-03-12T19:57:10.368Z,95741.65
2019-03-12T19:59:39.482Z,95742.96
2019-03-12T20:02:15.892Z,95736.45
2019-03-12T20:04:47.434Z,95733.02
2019-03-12T20:07:17.604Z,95726.98
2019-03-12T20:10:12.996Z,95726.03
2019-03-12T20:13:28.287Z,95719.19
2019-03-12T20:16:47.462Z,95711.81
2019-03-12T20:20:08.157Z,95696.27
2019-03-12T20:23:14.226Z,95690.69
2019-03-12T20:26:29.945Z,95678.96
2019-03-12T20:29:34.817Z,95679.47
2019-03-12T20:32:50.315Z,95672.63
2019-03-12T20:35:57.659Z,95666.50
2019-03-12T20:39:35.272Z,95644.52
2019-03-12T20:42:39.371Z,95637.91
2019-03-12T20:46:16.972Z,95625.03
2019-03-12T20:49:25.190Z,95610.00
2019-03-12T20:52:29.736Z,95610.23
2019-03-12T20:55:35.973Z,95606.48
2019-03-12T20:58:50.899Z,95608.61
2019-03-12T21:02:06.497Z,95600.22
2019-03-12T21:05:27.070Z,95602.34
2019-03-12T21:08:48.577Z,95591.28
2019-03-12T21:11:59.190Z,95577.80
2019-03-12T21:15:20.629Z,95573.85
2019-03-12T21:18:34.846Z,95559.92
2019-03-12T21:21:39.849Z,95560.19
2019-03-12T21:24:37.526Z,95234.77
2019-03-12T21:27:30.810Z,95545.73
2019-03-12T21:29:58.378Z,95540.47
2019-03-12T21:32:30.675Z,95536.81
2019-03-12T21:34:59.811Z,95529.45
2019-03-12T21:37:30.040Z,95514.98
2019-03-12T21:39:59.166Z,95520.98
2019-03-12T21:42:29.937Z,95438.91
2019-03-12T21:44:59.094Z,95509.94
2019-03-12T21:47:29.968Z,95505.45
2019-03-12T21:50:00.634Z,95495.98
2019-03-12T21:52:34.915Z,95484.69
2019-03-12T21:55:04.482Z,95481.28
2019-03-12T21:57:33.643Z,95471.02
2019-03-12T22:00:07.384Z,95469.67
2019-03-12T22:02:36.514Z,95467.58
2019-03-12T22:05:05.923Z,95469.94
2019-03-12T22:07:35.029Z,95464.44
2019-03-12T22:10:04.600Z,95459.94
2019-03-12T22:12:33.904Z,95459.17
2019-03-12T22:15:04.290Z,95457.04
2019-03-12T22:17:36.119Z,95464.44
2019-03-12T22:20:07.618Z,95417.61
2019-03-12T22:23:04.362Z,95448.66
2019-03-12T22:25:33.493Z,95389.48
2019-03-12T22:28:04.470Z,95437.34
2019-03-12T22:30:33.872Z,95446.27
2019-03-12T22:33:06.256Z,95438.92
2019-03-12T22:35:35.351Z,95438.92
2019-03-12T22:38:04.500Z,95430.48
2019-03-12T22:40:33.709Z,95433.66
2019-03-12T22:43:03.974Z,95427.35
2019-03-12T22:45:33.233Z,95423.92
2019-03-12T22:48:05.387Z,95439.44
2019-03-12T22:50:37.655Z,95433.66
2019-03-12T22:53:06.988Z,95438.66
2019-03-12T22:55:38.154Z,95438.64
2019-03-12T22:58:07.282Z,95435.92
2019-03-12T23:00:39.762Z,95437.34
2019-03-12T23:03:09.056Z,95449.97
2019-03-12T23:05:38.762Z,95449.45
2019-03-12T23:08:13.331Z,95451.98
2019-03-12T23:10:43.602Z,95451.51
2019-03-12T23:13:15.214Z,95457.47
2019-03-12T23:15:44.306Z,95452.30
2019-03-12T23:18:13.709Z,95457.40
2019-03-12T23:20:46.946Z,95476.13
2019-03-12T23:23:21.334Z,95476.94
2019-03-12T23:25:50.496Z,95481.16
2019-03-12T23:28:19.772Z,95500.50
2019-03-12T23:30:48.861Z,95488.54
2019-03-12T23:33:18.220Z,95485.03
2019-03-12T23:35:47.496Z,95513.43
2019-03-12T23:38:21.217Z,95229.34
2019-03-12T23:40:51.269Z,95494.54
2019-03-12T23:43:20.575Z,95539.66
2019-03-12T23:45:51.891Z,95528.17
2019-03-12T23:48:21.354Z,95518.71
2019-03-12T23:50:54.837Z,95544.09
2019-03-12T23:53:25.137Z,95543.84
2019-03-12T23:55:55.097Z,95545.95
2019-03-12T23:58:29.556Z,95591.44
